Hauptseite
METAR-TAF:

METAR-TAF

Flughäfen :

RAF Odiham

Odiham, England

Breite: 51-14N, Länge: 000-57W, Höhe: 123 m

Beobachtung

Neuester Wetterbericht von vor 26 Minuten, um 09:50 UTC
Wind 8 kt aus Südwest
Temperatur 18°C
Luftfeuchtigkeit 73%
Luftdruck 1021 hPa
Sichtweite 10 km oder mehr

METAR: EGVO 180950Z AUTO 23008KT 9999 BKN031/// 18/13 Q1021

Zeit: 11:16 (10:16 UTC)

Prognose

Neuester Wetterbericht von vor 23 Stunden und 41 Minuten, um 10:35 UTC
Gültige Prognose vom 17 um 12 UTC bis 17 um 24 UTC
Wind 12 kt aus West/Südwest
Sichtweite 10 km oder mehr
Aufgelockert bewölkt in der Höhe von 3500 ft
Zeitweise
vom 17 um 20 UTC bis 17 um 24 UTC
Aufgelockert bewölkt in der Höhe von 2000 ft

TAF: EGVO 171035Z 1712/1724 25012KT 9999 SCT035 TEMPO 1720/1724 SCT020

Wetterbeobachtungen und Prognosen von mehr als 4000 Flughäfen (METAR und TAF Bericht).

Die verfügbaren Stationen werden durch gelbe und rote Markierungen auf der Karte dargestellt.

Führen Sie die Maus auf sie, um den Namen der Station zu sehen.

Darauf klicken, um die Beobachtung von Wetterbeobachtungen und Prognosen zu sehen.

Um die Karte zu ändern : klicken Sie auf den grünen Tasten mit einem schwarzen Kreuz Zum Vergrößern, auf den grünen Button mit einem Gedankenstrich zu verkleinern, oder auf die grünen Pfeile für benachbarte Karten.


METAR-TAF: